createdAt,value
2019-02-20T00:02:15.171Z,6.43
2019-02-20T00:04:44.669Z,5.43
2019-02-20T00:07:14.093Z,4.43
2019-02-20T00:09:43.409Z,8.37
2019-02-20T00:12:12.722Z,6.80
2019-02-20T00:14:41.915Z,5.53
2019-02-20T00:17:11.092Z,5.13
2019-02-20T00:19:40.266Z,5.90
2019-02-20T00:22:09.557Z,5.90
2019-02-20T00:24:38.844Z,7.63
2019-02-20T00:27:08.102Z,6.10
2019-02-20T00:29:37.335Z,7.20
2019-02-20T00:32:06.591Z,7.93
2019-02-20T00:34:35.733Z,8.47
2019-02-20T00:37:04.995Z,7.90
2019-02-20T00:39:34.134Z,6.67
2019-02-20T00:42:03.433Z,5.70
2019-02-20T00:44:50.133Z,7.70
2019-02-20T00:47:41.436Z,8.90
2019-02-20T00:50:11.567Z,6.77
2019-02-20T00:52:50.134Z,5.67
2019-02-20T00:55:19.740Z,8.63
2019-02-20T00:57:49.243Z,6.93
2019-02-20T01:00:18.731Z,7.83
2019-02-20T01:02:47.917Z,7.87
2019-02-20T01:05:17.153Z,8.67
2019-02-20T01:07:46.308Z,6.30
2019-02-20T01:10:15.564Z,6.70
2019-02-20T01:12:44.811Z,6.33
2019-02-20T01:15:13.988Z,7.07
2019-02-20T01:17:43.201Z,5.43
2019-02-20T01:20:12.569Z,8.70
2019-02-20T01:22:41.749Z,6.00
2019-02-20T01:25:11.019Z,5.87
2019-02-20T01:27:40.212Z,6.20
2019-02-20T01:30:09.884Z,8.57
2019-02-20T01:32:39.195Z,8.10
2019-02-20T01:35:08.760Z,8.30
2019-02-20T01:37:37.941Z,8.27
2019-02-20T01:40:07.288Z,5.90
2019-02-20T01:42:36.465Z,9.53
2019-02-20T01:45:05.983Z,10.40
2019-02-20T01:47:35.236Z,7.33
2019-02-20T01:50:04.593Z,7.83
2019-02-20T01:52:33.988Z,8.90
2019-02-20T01:55:03.223Z,9.57
2019-02-20T01:57:32.411Z,8.30
2019-02-20T02:00:01.791Z,9.93
2019-02-20T02:02:30.999Z,9.43
2019-02-20T02:05:00.392Z,10.00
2019-02-20T02:07:29.520Z,9.90
2019-02-20T02:09:58.737Z,8.87
2019-02-20T02:12:27.896Z,7.47
2019-02-20T02:14:57.049Z,10.63
2019-02-20T02:17:26.219Z,7.90
2019-02-20T02:19:55.421Z,8.77
2019-02-20T02:22:24.757Z,8.17
2019-02-20T02:24:53.926Z,7.30
2019-02-20T02:27:23.126Z,6.67
2019-02-20T02:29:52.310Z,8.90
2019-02-20T02:32:21.540Z,7.17
2019-02-20T02:34:50.990Z,8.80
2019-02-20T02:37:20.156Z,9.30
2019-02-20T02:39:49.331Z,7.87
2019-02-20T02:42:18.533Z,7.30
2019-02-20T02:44:47.728Z,7.13
2019-02-20T02:47:16.885Z,7.40
2019-02-20T02:49:46.300Z,9.33
2019-02-20T02:52:15.427Z,9.27
2019-02-20T02:54:44.756Z,8.03
2019-02-20T02:57:13.888Z,7.20
2019-02-20T02:59:43.071Z,7.47
2019-02-20T03:02:12.280Z,7.27
2019-02-20T03:04:41.462Z,9.10
2019-02-20T03:07:10.673Z,9.87
2019-02-20T03:09:39.905Z,8.93
2019-02-20T03:12:09.155Z,7.70
2019-02-20T03:14:38.404Z,6.63
2019-02-20T03:17:07.644Z,9.83
2019-02-20T03:19:36.796Z,8.20
2019-02-20T03:22:06.039Z,9.67
2019-02-20T03:24:35.284Z,8.50
2019-02-20T03:27:04.536Z,6.37
2019-02-20T03:29:33.704Z,7.33
2019-02-20T03:32:02.977Z,9.30
2019-02-20T03:34:32.143Z,10.00
2019-02-20T03:37:01.466Z,8.97
2019-02-20T03:39:30.695Z,9.07
2019-02-20T03:42:00.187Z,9.67
2019-02-20T03:44:29.340Z,9.27
2019-02-20T03:46:58.599Z,6.70
2019-02-20T03:49:27.843Z,7.93
2019-02-20T03:51:57.019Z,6.53
2019-02-20T03:54:26.226Z,6.23
2019-02-20T03:56:55.425Z,8.90
2019-02-20T03:59:24.586Z,9.20
2019-02-20T04:01:53.793Z,8.23
2019-02-20T04:04:23.001Z,8.93
2019-02-20T04:06:52.199Z,9.20
2019-02-20T04:09:21.425Z,9.87
2019-02-20T04:11:50.614Z,9.80
2019-02-20T04:14:19.796Z,9.60
2019-02-20T04:16:49.041Z,10.07
2019-02-20T04:19:18.204Z,10.17
2019-02-20T04:21:47.401Z,10.13
2019-02-20T04:24:17.871Z,10.27
2019-02-20T04:26:47.068Z,7.37
2019-02-20T04:29:16.223Z,6.47
2019-02-20T04:31:45.408Z,7.23
2019-02-20T04:34:14.561Z,7.20
2019-02-20T04:36:43.749Z,10.07
2019-02-20T04:39:12.926Z,10.47
2019-02-20T04:41:42.151Z,10.83
2019-02-20T04:44:11.345Z,10.03
2019-02-20T04:46:40.587Z,9.87
2019-02-20T04:49:09.868Z,9.70
2019-02-20T04:51:39.155Z,8.77
2019-02-20T04:54:13.339Z,10.50
2019-02-20T04:56:39.346Z,9.60
2019-02-20T04:59:08.625Z,10.40
2019-02-20T05:01:37.928Z,9.97
2019-02-20T05:04:07.094Z,9.87
2019-02-20T05:06:36.273Z,9.57
2019-02-20T05:09:06.076Z,6.93
2019-02-20T05:11:35.258Z,9.27
2019-02-20T05:14:04.519Z,10.70
2019-02-20T05:16:33.680Z,8.10
2019-02-20T05:19:02.923Z,8.87
2019-02-20T05:21:32.099Z,11.50
2019-02-20T05:24:01.276Z,12.03
2019-02-20T05:26:30.442Z,11.63
2019-02-20T05:28:59.626Z,12.93
2019-02-20T05:31:28.793Z,11.03
2019-02-20T05:33:57.970Z,12.20
2019-02-20T05:36:27.165Z,11.27
2019-02-20T05:38:56.352Z,11.93
2019-02-20T05:41:25.592Z,11.53
2019-02-20T05:43:54.767Z,12.27
2019-02-20T05:46:23.937Z,8.83
2019-02-20T05:48:53.225Z,8.13
2019-02-20T05:51:22.428Z,9.03
2019-02-20T05:53:51.942Z,14.10
2019-02-20T05:56:21.237Z,13.03
2019-02-20T05:58:51.400Z,13.43
2019-02-20T06:01:20.720Z,13.50
2019-02-20T06:03:49.865Z,12.43
2019-02-20T06:06:19.101Z,11.40
2019-02-20T06:08:48.269Z,12.07
2019-02-20T06:11:17.526Z,10.87
2019-02-20T06:13:46.760Z,13.93
2019-02-20T06:16:15.957Z,18.43
2019-02-20T06:18:45.181Z,15.13
2019-02-20T06:21:16.334Z,14.20
2019-02-20T06:23:45.377Z,14.23
2019-02-20T06:26:14.550Z,12.60
2019-02-20T06:28:43.749Z,13.00
2019-02-20T06:31:13.059Z,12.70
2019-02-20T06:33:42.236Z,15.00
2019-02-20T06:36:11.488Z,13.23
2019-02-20T06:38:40.747Z,14.90
2019-02-20T06:41:09.944Z,10.77
2019-02-20T06:43:39.180Z,9.63
2019-02-20T06:46:08.412Z,14.97
2019-02-20T06:48:37.582Z,10.57
2019-02-20T06:51:06.824Z,13.20
2019-02-20T06:53:36.024Z,9.47
2019-02-20T06:56:05.251Z,15.70
2019-02-20T06:58:34.501Z,16.47
2019-02-20T07:01:03.645Z,16.70
2019-02-20T07:03:32.831Z,16.90
2019-02-20T07:06:21.314Z,16.93
2019-02-20T07:09:30.499Z,14.77
2019-02-20T07:12:44.617Z,16.60
2019-02-20T07:15:47.301Z,15.63
2019-02-20T07:18:40.618Z,17.10
2019-02-20T07:21:41.264Z,16.03
2019-02-20T07:24:41.526Z,16.70
2019-02-20T07:27:49.289Z,15.37
2019-02-20T07:30:18.469Z,16.80
2019-02-20T07:32:47.708Z,16.47
2019-02-20T07:35:16.981Z,15.37
2019-02-20T07:37:46.188Z,15.27
2019-02-20T07:40:15.333Z,11.03
2019-02-20T07:42:44.622Z,14.93
2019-02-20T07:45:15.696Z,17.60
2019-02-20T07:47:44.962Z,15.37
2019-02-20T07:50:16.688Z,15.90
2019-02-20T07:52:45.989Z,14.70
2019-02-20T07:55:15.254Z,11.70
2019-02-20T07:57:44.488Z,11.90
2019-02-20T08:00:14.608Z,15.33
2019-02-20T08:02:43.758Z,12.23
2019-02-20T08:05:13.102Z,12.60
2019-02-20T08:07:42.320Z,12.97
2019-02-20T08:10:12.214Z,11.53
2019-02-20T08:12:41.524Z,14.70
2019-02-20T08:15:12.669Z,16.30
2019-02-20T08:17:42.002Z,14.47
2019-02-20T08:20:11.853Z,16.07
2019-02-20T08:22:41.349Z,13.20
2019-02-20T08:25:10.700Z,15.83
2019-02-20T08:27:40.034Z,16.17
2019-02-20T08:30:12.468Z,13.67
2019-02-20T08:32:41.648Z,14.70
2019-02-20T08:35:11.447Z,16.57
2019-02-20T08:37:40.599Z,14.63
2019-02-20T08:40:12.212Z,18.13
2019-02-20T08:42:41.510Z,15.10
2019-02-20T08:45:11.167Z,17.27
2019-02-20T08:47:40.409Z,14.47
2019-02-20T08:50:10.431Z,19.50
2019-02-20T08:52:40.009Z,17.30
2019-02-20T08:55:09.417Z,19.23
2019-02-20T08:57:38.797Z,19.47
2019-02-20T09:00:10.658Z,18.80
2019-02-20T09:02:39.883Z,19.77
2019-02-20T09:05:09.260Z,18.63
2019-02-20T09:07:38.474Z,15.87
2019-02-20T09:10:08.335Z,18.40
2019-02-20T09:12:37.624Z,18.47
2019-02-20T09:15:07.356Z,17.70
2019-02-20T09:17:36.620Z,18.57
2019-02-20T09:20:06.631Z,19.60
2019-02-20T09:22:35.953Z,15.93
2019-02-20T09:25:05.721Z,19.27
2019-02-20T09:27:34.879Z,17.67
2019-02-20T09:30:04.271Z,18.37
2019-02-20T09:32:33.495Z,16.73
2019-02-20T09:35:02.788Z,17.97
2019-02-20T09:37:32.058Z,16.77
2019-02-20T09:40:01.224Z,19.57
2019-02-20T09:42:30.503Z,19.17
2019-02-20T09:44:59.664Z,17.77
2019-02-20T09:47:28.856Z,19.57
2019-02-20T09:49:58.004Z,20.40
2019-02-20T09:52:27.331Z,18.53
2019-02-20T09:54:56.480Z,17.17
2019-02-20T09:57:25.716Z,20.47
2019-02-20T09:59:54.924Z,18.80
2019-02-20T10:02:24.261Z,16.97
2019-02-20T10:04:53.492Z,16.03
2019-02-20T10:07:22.804Z,17.47
2019-02-20T10:09:52.023Z,13.33
2019-02-20T10:12:21.179Z,19.30
2019-02-20T10:14:50.459Z,16.90
2019-02-20T10:17:19.786Z,17.63
2019-02-20T10:19:49.060Z,17.10
2019-02-20T10:22:18.260Z,18.03
2019-02-20T10:24:47.507Z,15.30
2019-02-20T10:27:16.715Z,14.93
2019-02-20T10:29:45.935Z,17.10
2019-02-20T10:32:15.140Z,13.90
2019-02-20T10:34:44.404Z,16.67
2019-02-20T10:37:13.687Z,14.53
2019-02-20T10:39:42.886Z,12.23
2019-02-20T10:42:12.321Z,17.27
2019-02-20T10:44:41.729Z,17.43
2019-02-20T10:47:10.979Z,16.93
2019-02-20T10:49:40.182Z,16.77
2019-02-20T10:52:09.384Z,14.70
2019-02-20T10:54:38.586Z,13.90
2019-02-20T10:57:07.762Z,14.53
2019-02-20T10:59:37.081Z,11.50
2019-02-20T11:02:06.439Z,13.43
2019-02-20T11:04:35.613Z,13.83
2019-02-20T11:07:04.891Z,13.27
2019-02-20T11:09:34.168Z,16.40
2019-02-20T11:12:03.357Z,13.93
2019-02-20T11:14:32.623Z,14.57
2019-02-20T11:17:01.821Z,12.53
2019-02-20T11:19:31.065Z,9.87
2019-02-20T11:22:00.292Z,10.00
2019-02-20T11:24:29.472Z,9.10
2019-02-20T11:26:58.810Z,9.20
2019-02-20T11:29:28.070Z,6.50
2019-02-20T11:31:57.271Z,5.53
2019-02-20T11:34:26.525Z,4.83
2019-02-20T11:36:55.786Z,5.03
2019-02-20T11:39:24.954Z,5.00
2019-02-20T11:41:54.235Z,3.70
2019-02-20T11:44:23.425Z,3.87
2019-02-20T11:46:52.621Z,5.07
2019-02-20T11:49:21.903Z,5.20
2019-02-20T11:51:52.798Z,5.97
2019-02-20T11:54:22.038Z,5.23
2019-02-20T11:56:51.243Z,4.70
2019-02-20T11:59:20.390Z,5.30
2019-02-20T12:01:49.652Z,6.50
2019-02-20T12:04:18.945Z,6.67
2019-02-20T12:06:48.156Z,6.97
2019-02-20T12:09:17.352Z,6.30
2019-02-20T12:11:46.620Z,7.37
2019-02-20T12:14:15.840Z,7.50
2019-02-20T12:16:44.998Z,6.33
2019-02-20T12:19:14.303Z,8.30
2019-02-20T12:21:43.493Z,8.20
2019-02-20T12:24:12.728Z,7.87
2019-02-20T12:26:42.031Z,6.97
2019-02-20T12:29:11.398Z,6.27
2019-02-20T12:31:40.541Z,6.37
2019-02-20T12:34:09.788Z,5.80
2019-02-20T12:36:38.972Z,5.80
2019-02-20T12:39:08.184Z,6.63
2019-02-20T12:41:37.422Z,6.17
2019-02-20T12:44:06.707Z,6.87
2019-02-20T12:46:35.986Z,6.40
2019-02-20T12:49:05.211Z,6.77
2019-02-20T12:51:34.403Z,6.50
2019-02-20T12:54:03.604Z,6.80
2019-02-20T12:56:32.837Z,6.80
2019-02-20T12:59:07.631Z,6.70
2019-02-20T13:01:33.034Z,6.67
2019-02-20T13:04:02.338Z,7.57
2019-02-20T13:06:31.576Z,7.07
2019-02-20T13:09:00.888Z,6.93
2019-02-20T13:11:30.160Z,6.90
2019-02-20T13:13:59.405Z,6.30
2019-02-20T13:16:28.564Z,7.80
2019-02-20T13:18:59.304Z,7.03
2019-02-20T13:21:34.692Z,6.70
2019-02-20T13:24:03.929Z,8.40
2019-02-20T13:26:33.134Z,7.53
2019-02-20T13:29:02.369Z,7.37
2019-02-20T13:31:31.715Z,8.20
2019-02-20T13:34:01.041Z,7.30
2019-02-20T13:36:30.271Z,7.70
2019-02-20T13:38:59.551Z,8.50
2019-02-20T13:41:29.988Z,7.07
2019-02-20T13:43:59.263Z,7.47
2019-02-20T13:46:28.726Z,8.37
2019-02-20T13:48:57.978Z,8.63
2019-02-20T13:51:27.303Z,8.53
2019-02-20T13:53:56.592Z,7.80
2019-02-20T13:56:25.812Z,8.47
2019-02-20T13:58:55.277Z,7.70
2019-02-20T14:01:24.782Z,8.00
2019-02-20T14:03:54.099Z,8.27
2019-02-20T14:06:23.400Z,9.13
2019-02-20T14:08:52.861Z,8.20
2019-02-20T14:11:22.231Z,8.27
2019-02-20T14:13:51.589Z,8.33
2019-02-20T14:16:21.215Z,7.87
2019-02-20T14:18:51.381Z,9.10
2019-02-20T14:21:20.778Z,8.70
2019-02-20T14:23:50.805Z,7.53
2019-02-20T14:26:20.994Z,7.70
2019-02-20T14:28:50.292Z,8.50
2019-02-20T14:31:19.572Z,8.70
2019-02-20T14:33:48.870Z,8.60
2019-02-20T14:36:18.100Z,9.70
2019-02-20T14:38:47.839Z,8.00
2019-02-20T14:41:17.258Z,9.10
2019-02-20T14:43:46.672Z,8.07
2019-02-20T14:46:16.193Z,8.50
2019-02-20T14:48:47.323Z,8.63
2019-02-20T14:51:16.683Z,6.17
2019-02-20T14:53:46.449Z,8.17
2019-02-20T14:56:15.703Z,6.83
2019-02-20T14:58:44.940Z,5.83
2019-02-20T15:01:14.196Z,7.23
2019-02-20T15:03:43.485Z,6.13
2019-02-20T15:06:13.035Z,5.90
2019-02-20T15:08:42.575Z,7.43
2019-02-20T15:11:11.917Z,7.93
2019-02-20T15:13:41.184Z,7.07
2019-02-20T15:16:10.620Z,7.00
2019-02-20T15:18:40.362Z,7.83
2019-02-20T15:21:09.824Z,6.40
2019-02-20T15:23:39.137Z,6.80
2019-02-20T15:26:08.570Z,6.77
2019-02-20T15:28:37.998Z,6.80
2019-02-20T15:31:07.625Z,6.50
2019-02-20T15:33:36.966Z,6.20
2019-02-20T15:36:06.382Z,5.90
2019-02-20T15:38:35.689Z,5.97
2019-02-20T15:41:04.966Z,4.80
2019-02-20T15:43:34.149Z,6.70
2019-02-20T15:46:03.439Z,7.33
2019-02-20T15:48:32.717Z,4.77
2019-02-20T15:51:02.427Z,6.63
2019-02-20T15:53:31.826Z,5.73
2019-02-20T15:56:01.896Z,6.73
2019-02-20T15:58:31.286Z,6.07
2019-02-20T16:01:00.674Z,6.27
2019-02-20T16:03:29.973Z,6.10
2019-02-20T16:05:59.527Z,4.90
2019-02-20T16:08:28.850Z,6.80
2019-02-20T16:10:58.611Z,6.00
2019-02-20T16:13:28.295Z,5.07
2019-02-20T16:15:57.655Z,4.30
2019-02-20T16:18:26.891Z,6.37
2019-02-20T16:20:56.685Z,6.13
2019-02-20T16:23:26.120Z,6.37
2019-02-20T16:25:55.479Z,6.37
2019-02-20T16:28:33.406Z,6.27
2019-02-20T16:30:56.003Z,5.40
2019-02-20T16:33:25.268Z,4.93
2019-02-20T16:35:55.023Z,3.83
2019-02-20T16:38:24.357Z,3.70
2019-02-20T16:40:53.634Z,4.23
2019-02-20T16:43:23.008Z,3.90
2019-02-20T16:45:52.356Z,4.83
2019-02-20T16:48:21.745Z,4.07
2019-02-20T16:50:51.299Z,6.10
2019-02-20T16:53:20.874Z,4.00
2019-02-20T16:55:50.184Z,7.37
2019-02-20T16:58:19.940Z,5.70
2019-02-20T17:00:50.028Z,4.47
2019-02-20T17:03:19.518Z,6.93
2019-02-20T17:05:48.813Z,5.93
2019-02-20T17:08:18.160Z,4.20
2019-02-20T17:10:47.450Z,3.77
2019-02-20T17:13:17.229Z,3.90
2019-02-20T17:15:46.687Z,6.77
2019-02-20T17:18:16.024Z,4.60
2019-02-20T17:20:45.353Z,4.87
2019-02-20T17:23:15.462Z,4.63
2019-02-20T17:25:44.910Z,5.30
2019-02-20T17:28:15.014Z,6.50
2019-02-20T17:30:44.351Z,6.37
2019-02-20T17:33:13.665Z,8.47
2019-02-20T17:35:43.318Z,6.70
2019-02-20T17:38:12.767Z,6.57
2019-02-20T17:40:42.076Z,4.73
2019-02-20T17:43:11.927Z,9.87
2019-02-20T17:45:41.209Z,9.47
2019-02-20T17:48:10.493Z,9.30
2019-02-20T17:50:39.815Z,7.30
2019-02-20T17:53:09.095Z,6.57
2019-02-20T17:55:38.465Z,10.77
2019-02-20T17:58:14.883Z,7.20
2019-02-20T18:00:39.424Z,7.13
2019-02-20T18:03:08.818Z,9.33
2019-02-20T18:05:38.121Z,10.13
2019-02-20T18:08:07.382Z,9.53
2019-02-20T18:10:36.830Z,7.80
2019-02-20T18:13:06.112Z,8.83
2019-02-20T18:15:35.562Z,6.50
2019-02-20T18:18:04.888Z,6.90
2019-02-20T18:20:34.158Z,10.13
2019-02-20T18:23:03.586Z,10.37
2019-02-20T18:25:32.974Z,7.30
2019-02-20T18:28:02.274Z,8.40
2019-02-20T18:30:31.863Z,6.53
2019-02-20T18:33:01.164Z,9.37
2019-02-20T18:35:30.636Z,9.97
2019-02-20T18:38:00.015Z,9.30
2019-02-20T18:40:29.405Z,10.10
2019-02-20T18:42:59.004Z,7.00
2019-02-20T18:45:28.324Z,5.90
2019-02-20T18:47:57.721Z,5.77
2019-02-20T18:50:27.884Z,5.47
2019-02-20T18:52:57.334Z,9.93
2019-02-20T18:55:26.668Z,8.00
2019-02-20T18:57:56.011Z,7.87
2019-02-20T19:00:25.546Z,7.30
2019-02-20T19:02:54.762Z,7.40
2019-02-20T19:05:24.164Z,12.20
2019-02-20T19:07:53.578Z,12.50
2019-02-20T19:10:27.658Z,12.13
2019-02-20T19:13:46.647Z,9.30
2019-02-20T19:16:44.957Z,7.97
2019-02-20T19:19:51.111Z,9.37
2019-02-20T19:22:59.928Z,8.20
2019-02-20T19:26:09.428Z,7.23
2019-02-20T19:28:55.660Z,8.60
2019-02-20T19:32:14.883Z,7.97
2019-02-20T19:35:15.292Z,9.57
2019-02-20T19:38:18.085Z,9.37
2019-02-20T19:41:37.371Z,8.80
2019-02-20T19:44:48.147Z,8.50
2019-02-20T19:47:50.329Z,7.27
2019-02-20T19:50:43.413Z,9.07
2019-02-20T19:53:37.468Z,6.57
2019-02-20T19:56:25.635Z,9.53
2019-02-20T19:59:40.602Z,8.83
2019-02-20T20:02:56.659Z,9.63
2019-02-20T20:06:09.893Z,9.33
2019-02-20T20:08:53.848Z,10.73
2019-02-20T20:11:45.092Z,8.33
2019-02-20T20:14:34.840Z,10.30
2019-02-20T20:17:36.569Z,10.83
2019-02-20T20:20:27.440Z,10.17
2019-02-20T20:23:34.228Z,10.30
2019-02-20T20:26:44.536Z,10.20
2019-02-20T20:30:08.010Z,7.23
2019-02-20T20:33:36.304Z,9.73
2019-02-20T20:37:00.800Z,9.00
2019-02-20T20:39:57.728Z,9.03
2019-02-20T20:43:08.053Z,9.13
2019-02-20T20:46:12.123Z,9.80
2019-02-20T20:49:21.358Z,8.87
2019-02-20T20:52:44.015Z,10.10
2019-02-20T20:55:44.017Z,10.10
2019-02-20T20:58:37.862Z,9.87
2019-02-20T21:01:37.832Z,6.17
2019-02-20T21:04:45.208Z,6.17
2019-02-20T21:07:45.298Z,6.83
2019-02-20T21:10:54.694Z,5.20
2019-02-20T21:14:14.166Z,10.47
2019-02-20T21:17:27.689Z,8.20
2019-02-20T21:20:36.213Z,10.13
2019-02-20T21:23:58.512Z,5.80
2019-02-20T21:26:58.935Z,6.50
2019-02-20T21:30:08.547Z,9.13
2019-02-20T21:32:51.243Z,7.47
2019-02-20T21:36:10.410Z,10.20
2019-02-20T21:39:12.546Z,9.80
2019-02-20T21:41:59.545Z,11.93
2019-02-20T21:45:15.866Z,8.13
2019-02-20T21:48:22.415Z,11.37
2019-02-20T21:51:24.950Z,8.33
2019-02-20T21:54:23.015Z,12.67
2019-02-20T21:57:27.648Z,9.07
2019-02-20T22:00:42.353Z,10.93
2019-02-20T22:03:48.240Z,8.67
2019-02-20T22:06:58.548Z,8.50
2019-02-20T22:09:57.939Z,10.37
2019-02-20T22:13:18.796Z,12.53
2019-02-20T22:16:35.173Z,10.60
2019-02-20T22:19:28.135Z,10.17
2019-02-20T22:22:09.078Z,11.10
2019-02-20T22:25:03.705Z,9.97
2019-02-20T22:27:57.367Z,7.60
2019-02-20T22:31:05.518Z,8.50
2019-02-20T22:33:43.080Z,11.10
2019-02-20T22:36:40.201Z,7.30
2019-02-20T22:39:30.017Z,11.40
2019-02-20T22:42:27.256Z,9.67
2019-02-20T22:45:36.362Z,10.43
2019-02-20T22:48:49.664Z,11.47
2019-02-20T22:51:55.519Z,11.07
2019-02-20T22:55:02.695Z,10.57
2019-02-20T22:57:53.007Z,12.70
2019-02-20T23:01:17.240Z,9.07
2019-02-20T23:03:55.062Z,7.97
2019-02-20T23:07:06.275Z,12.73
2019-02-20T23:09:49.887Z,10.80
2019-02-20T23:12:35.700Z,12.57
2019-02-20T23:15:06.657Z,8.80
2019-02-20T23:17:36.023Z,12.90
2019-02-20T23:20:05.374Z,12.83
2019-02-20T23:22:34.682Z,14.37
2019-02-20T23:25:03.986Z,11.13
2019-02-20T23:27:33.333Z,13.20
2019-02-20T23:30:12.195Z,12.53
2019-02-20T23:32:33.776Z,12.43
2019-02-20T23:35:03.247Z,9.70
2019-02-20T23:37:32.649Z,9.33
2019-02-20T23:40:01.870Z,9.50
2019-02-20T23:42:31.199Z,10.73
2019-02-20T23:45:00.407Z,14.67
2019-02-20T23:47:29.723Z,11.57
2019-02-20T23:49:59.043Z,11.13
2019-02-20T23:52:28.376Z,9.33
2019-02-20T23:54:57.698Z,13.50
2019-02-20T23:57:26.878Z,11.30
2019-02-20T23:59:56.176Z,9.63
